createdAt,value
2022-10-15T00:01:48.180Z,59.89
2022-10-15T00:03:50.065Z,60.08
2022-10-15T00:05:51.658Z,59.79
2022-10-15T00:07:54.062Z,60.03
2022-10-15T00:09:55.544Z,60.38
2022-10-15T00:11:57.502Z,60.01
2022-10-15T00:14:00.411Z,59.79
2022-10-15T00:16:02.166Z,60.15
2022-10-15T00:18:03.920Z,59.91
2022-10-15T00:20:12.395Z,59.94
2022-10-15T00:22:14.044Z,60.06
2022-10-15T00:24:15.897Z,60.02
2022-10-15T00:26:26.123Z,60.44
2022-10-15T00:28:31.859Z,59.90
2022-10-15T00:30:35.878Z,60.18
2022-10-15T00:32:37.559Z,59.95
2022-10-15T00:34:41.588Z,60.36
2022-10-15T00:36:43.072Z,60.32
2022-10-15T00:38:44.842Z,60.18
2022-10-15T00:40:46.499Z,60.23
2022-10-15T00:42:48.057Z,60.09
2022-10-15T00:44:55.471Z,60.51
2022-10-15T00:47:04.346Z,60.41
2022-10-15T00:49:18.805Z,60.24
2022-10-15T00:51:21.198Z,60.16
2022-10-15T00:53:23.310Z,60.09
2022-10-15T00:55:27.100Z,60.13
2022-10-15T00:57:31.426Z,60.54
2022-10-15T00:59:39.017Z,60.41
2022-10-15T01:01:40.858Z,60.27
2022-10-15T01:03:43.028Z,60.21
2022-10-15T01:05:49.083Z,60.51
2022-10-15T01:07:50.639Z,60.37
2022-10-15T01:09:52.245Z,60.35
2022-10-15T01:11:55.933Z,60.38
2022-10-15T01:14:45.363Z,60.69
2022-10-15T01:17:13.602Z,60.30
2022-10-15T01:19:31.630Z,60.62
2022-10-15T01:21:51.225Z,60.58
2022-10-15T01:24:38.137Z,60.41
2022-10-15T01:27:09.645Z,60.70
2022-10-15T01:29:34.007Z,60.90
2022-10-15T01:31:49.485Z,60.98
2022-10-15T01:34:02.500Z,60.37
2022-10-15T01:36:06.412Z,60.33
2022-10-15T01:38:33.301Z,60.69
2022-10-15T01:40:50.384Z,60.62
2022-10-15T01:42:58.046Z,60.71
2022-10-15T01:45:18.642Z,60.61
2022-10-15T01:47:46.796Z,60.69
2022-10-15T01:49:52.760Z,60.52
2022-10-15T01:51:57.236Z,60.49
2022-10-15T01:54:00.109Z,60.63
2022-10-15T01:56:12.754Z,60.57
2022-10-15T01:58:17.746Z,60.89
2022-10-15T02:00:19.502Z,60.91
2022-10-15T02:02:21.273Z,60.73
2022-10-15T02:04:31.138Z,60.40
2022-10-15T02:06:39.682Z,60.73
2022-10-15T02:09:10.644Z,60.59
2022-10-15T02:11:15.932Z,60.65
2022-10-15T02:13:40.007Z,61.03
2022-10-15T02:16:02.384Z,60.74
2022-10-15T02:18:20.040Z,60.96
2022-10-15T02:20:28.877Z,60.99
2022-10-15T02:22:42.007Z,60.73
2022-10-15T02:24:58.386Z,60.91
2022-10-15T02:27:03.204Z,60.79
2022-10-15T02:29:10.365Z,60.71
2022-10-15T02:31:16.270Z,60.46
2022-10-15T02:33:18.529Z,60.66
2022-10-15T02:35:23.869Z,60.84
2022-10-15T02:37:27.885Z,60.76
2022-10-15T02:39:29.729Z,60.72
2022-10-15T02:41:35.911Z,60.75
2022-10-15T02:43:38.307Z,60.68
2022-10-15T02:45:40.004Z,61.13
2022-10-15T02:47:41.523Z,60.66
2022-10-15T02:49:43.437Z,60.98
2022-10-15T02:51:44.983Z,60.91
2022-10-15T02:53:50.842Z,60.64
2022-10-15T02:55:53.863Z,60.73
2022-10-15T02:57:55.519Z,60.68
2022-10-15T02:59:57.415Z,60.75
2022-10-15T03:01:58.944Z,60.59
2022-10-15T03:04:02.051Z,60.87
2022-10-15T03:06:06.168Z,60.91
2022-10-15T03:08:07.613Z,61.07
2022-10-15T03:10:09.911Z,60.91
2022-10-15T03:12:11.507Z,61.05
2022-10-15T03:14:13.174Z,60.92
2022-10-15T03:16:15.661Z,60.74
2022-10-15T03:18:20.182Z,60.86
2022-10-15T03:20:22.234Z,60.90
2022-10-15T03:22:24.111Z,60.94
2022-10-15T03:24:28.214Z,60.69
2022-10-15T03:26:30.002Z,60.55
2022-10-15T03:28:31.672Z,60.76
2022-10-15T03:30:33.464Z,60.94
2022-10-15T03:32:36.342Z,61.11
2022-10-15T03:34:39.733Z,61.23
2022-10-15T03:36:42.329Z,60.69
2022-10-15T03:38:45.827Z,61.02
2022-10-15T03:40:48.841Z,60.99
2022-10-15T03:42:56.467Z,60.83
2022-10-15T03:44:59.162Z,60.73
2022-10-15T03:47:00.886Z,60.99
2022-10-15T03:49:12.605Z,60.95
2022-10-15T03:51:17.042Z,60.93
2022-10-15T03:53:24.677Z,60.82
2022-10-15T03:55:26.313Z,60.90
2022-10-15T03:57:28.035Z,60.76
2022-10-15T03:59:35.762Z,60.87
2022-10-15T04:01:38.718Z,60.84
2022-10-15T04:03:40.984Z,60.71
2022-10-15T04:05:53.798Z,60.79
2022-10-15T04:07:58.611Z,60.92
2022-10-15T04:10:02.078Z,60.76
2022-10-15T04:12:12.623Z,61.21
2022-10-15T04:14:14.527Z,60.89
2022-10-15T04:16:17.909Z,60.94
2022-10-15T04:18:21.814Z,61.08
2022-10-15T04:20:27.421Z,61.00
2022-10-15T04:22:37.329Z,61.06
2022-10-15T04:24:39.836Z,60.96
2022-10-15T04:26:42.038Z,60.83
2022-10-15T04:28:49.697Z,60.98
2022-10-15T04:30:59.748Z,61.16
2022-10-15T04:33:01.662Z,60.77
2022-10-15T04:35:03.458Z,61.14
2022-10-15T04:37:23.791Z,61.07
2022-10-15T04:39:25.617Z,60.98
2022-10-15T04:41:27.067Z,61.11
2022-10-15T04:43:34.874Z,61.38
2022-10-15T04:45:40.650Z,61.06
2022-10-15T04:47:42.355Z,61.14
2022-10-15T04:49:47.341Z,60.90
2022-10-15T04:52:02.843Z,61.15
2022-10-15T04:54:23.073Z,61.06
2022-10-15T04:56:37.456Z,61.25
2022-10-15T04:58:39.404Z,60.99
2022-10-15T05:00:41.303Z,61.14
2022-10-15T05:02:43.360Z,61.24
2022-10-15T05:04:58.385Z,61.22
2022-10-15T05:06:59.883Z,61.41
2022-10-15T05:09:02.071Z,61.35
2022-10-15T05:11:17.846Z,61.30
2022-10-15T05:13:19.437Z,61.26
2022-10-15T05:15:21.127Z,61.04
2022-10-15T05:17:22.986Z,61.21
2022-10-15T05:19:24.860Z,61.28
2022-10-15T05:21:27.051Z,61.06
2022-10-15T05:23:32.063Z,61.27
2022-10-15T05:25:49.300Z,61.49
2022-10-15T05:27:56.780Z,61.21
2022-10-15T05:29:58.774Z,61.20
2022-10-15T05:32:08.986Z,61.10
2022-10-15T05:34:12.502Z,60.77
2022-10-15T05:36:28.845Z,61.36
2022-10-15T05:38:30.435Z,61.18
2022-10-15T05:40:32.141Z,61.15
2022-10-15T05:42:42.077Z,61.18
2022-10-15T05:44:44.085Z,61.43
2022-10-15T05:46:45.568Z,61.29
2022-10-15T05:48:55.984Z,61.29
2022-10-15T05:51:05.791Z,61.32
2022-10-15T05:53:07.513Z,61.23
2022-10-15T05:55:30.298Z,61.25
2022-10-15T05:57:31.747Z,61.38
2022-10-15T05:59:35.570Z,61.17
2022-10-15T06:01:37.968Z,61.36
2022-10-15T06:03:40.927Z,61.57
2022-10-15T06:05:42.503Z,61.33
2022-10-15T06:07:44.011Z,61.44
2022-10-15T06:09:45.532Z,61.55
2022-10-15T06:11:47.125Z,61.66
2022-10-15T06:13:53.367Z,61.75
2022-10-15T06:15:55.115Z,61.62
2022-10-15T06:17:56.652Z,61.63
2022-10-15T06:19:58.317Z,61.89
2022-10-15T06:22:00.012Z,61.50
2022-10-15T06:24:03.139Z,61.77
2022-10-15T06:26:09.449Z,61.63
2022-10-15T06:28:11.275Z,61.32
2022-10-15T06:30:19.467Z,61.61
2022-10-15T06:32:21.045Z,61.54
2022-10-15T06:34:22.721Z,61.47
2022-10-15T06:36:25.612Z,61.88
2022-10-15T06:38:27.198Z,61.92
2022-10-15T06:40:29.087Z,61.68
2022-10-15T06:42:30.590Z,61.89
2022-10-15T06:44:32.163Z,61.82
2022-10-15T06:46:33.780Z,61.87
2022-10-15T06:48:35.347Z,61.79
2022-10-15T06:50:38.338Z,61.56
2022-10-15T06:52:39.881Z,61.76
2022-10-15T06:54:41.480Z,61.51
2022-10-15T06:56:45.644Z,61.51
2022-10-15T06:58:47.294Z,61.51
2022-10-15T07:00:48.832Z,61.65
2022-10-15T07:02:51.428Z,62.10
2022-10-15T07:04:53.095Z,61.98
2022-10-15T07:06:55.175Z,61.83
2022-10-15T07:08:58.316Z,61.73
2022-10-15T07:11:05.222Z,61.96
2022-10-15T07:13:06.677Z,61.77
2022-10-15T07:15:08.603Z,61.67
2022-10-15T07:17:10.160Z,61.76
2022-10-15T07:19:11.721Z,62.25
2022-10-15T07:21:13.649Z,62.14
2022-10-15T07:23:15.331Z,61.78
2022-10-15T07:25:17.577Z,62.08
2022-10-15T07:27:20.698Z,61.74
2022-10-15T07:29:22.322Z,62.04
2022-10-15T07:31:24.182Z,62.12
2022-10-15T07:33:25.709Z,62.16
2022-10-15T07:35:34.241Z,62.03
2022-10-15T07:37:35.777Z,62.17
2022-10-15T07:39:40.674Z,61.83
2022-10-15T07:41:43.349Z,61.93
2022-10-15T07:43:44.979Z,62.42
2022-10-15T07:45:50.101Z,62.07
2022-10-15T07:47:52.046Z,62.30
2022-10-15T07:49:53.483Z,61.76
2022-10-15T07:51:55.015Z,61.90
2022-10-15T07:53:59.444Z,62.08
2022-10-15T07:56:03.061Z,62.22
2022-10-15T07:58:08.450Z,62.09
2022-10-15T08:00:10.458Z,62.31
2022-10-15T08:02:16.663Z,61.84
2022-10-15T08:04:20.333Z,62.44
2022-10-15T08:06:24.077Z,62.25
2022-10-15T08:08:25.609Z,62.39
2022-10-15T08:10:27.876Z,62.40
2022-10-15T08:12:29.467Z,62.32
2022-10-15T08:14:31.173Z,62.14
2022-10-15T08:16:32.761Z,62.17
2022-10-15T08:18:34.738Z,62.27
2022-10-15T08:20:37.848Z,62.38
2022-10-15T08:22:39.968Z,62.43
2022-10-15T08:24:42.410Z,62.20
2022-10-15T08:26:44.098Z,62.47
2022-10-15T08:28:45.864Z,62.38
2022-10-15T08:30:47.492Z,62.08
2022-10-15T08:32:49.135Z,61.99
2022-10-15T08:34:50.745Z,61.90
2022-10-15T08:36:52.659Z,62.12
2022-10-15T08:38:54.505Z,62.26
2022-10-15T08:40:59.738Z,62.26
2022-10-15T08:43:02.464Z,61.93
2022-10-15T08:45:19.715Z,61.95
2022-10-15T08:47:34.258Z,62.49
2022-10-15T08:49:43.777Z,62.15
2022-10-15T08:51:52.662Z,62.19
2022-10-15T08:54:03.507Z,62.06
2022-10-15T08:56:15.070Z,62.18
2022-10-15T08:58:25.471Z,62.32
2022-10-15T09:00:46.442Z,62.11
2022-10-15T09:03:11.719Z,62.33
2022-10-15T09:05:45.800Z,62.24
2022-10-15T09:07:58.666Z,62.41
2022-10-15T09:10:29.092Z,62.46
2022-10-15T09:12:47.786Z,62.27
2022-10-15T09:14:50.374Z,62.21
2022-10-15T09:16:52.027Z,62.74
2022-10-15T09:18:54.517Z,62.74
2022-10-15T09:20:58.157Z,62.94
2022-10-15T09:23:00.011Z,62.97
2022-10-15T09:25:15.022Z,62.81
2022-10-15T09:27:32.858Z,63.53
2022-10-15T09:29:47.929Z,62.83
2022-10-15T09:32:08.607Z,62.96
2022-10-15T09:34:36.137Z,63.05
2022-10-15T09:36:46.388Z,63.15
2022-10-15T09:39:29.129Z,62.91
2022-10-15T09:41:54.829Z,62.65
2022-10-15T09:43:59.201Z,62.73
2022-10-15T09:46:05.172Z,62.56
2022-10-15T09:48:18.662Z,62.85
2022-10-15T09:50:20.169Z,62.55
2022-10-15T09:52:40.554Z,62.57
2022-10-15T09:54:48.477Z,62.46
2022-10-15T09:56:54.169Z,62.72
2022-10-15T09:58:58.121Z,62.67
2022-10-15T10:01:07.880Z,62.93
2022-10-15T10:03:15.338Z,62.89
2022-10-15T10:05:20.252Z,63.32
2022-10-15T10:07:30.504Z,62.97
2022-10-15T10:09:36.257Z,62.90
2022-10-15T10:11:51.545Z,63.20
2022-10-15T10:14:00.756Z,63.39
2022-10-15T10:16:05.991Z,63.39
2022-10-15T10:18:18.830Z,63.80
2022-10-15T10:20:22.879Z,63.37
2022-10-15T10:22:24.574Z,63.50
2022-10-15T10:24:32.069Z,63.64
2022-10-15T10:26:36.100Z,63.57
2022-10-15T10:28:46.485Z,63.55
2022-10-15T10:31:03.719Z,63.60
2022-10-15T10:33:05.978Z,63.55
2022-10-15T10:35:21.094Z,63.97
2022-10-15T10:37:23.453Z,63.71
2022-10-15T10:39:28.461Z,64.02
2022-10-15T10:41:59.310Z,64.76
2022-10-15T10:44:00.934Z,64.48
2022-10-15T10:46:24.538Z,65.23
2022-10-15T10:48:43.083Z,64.92
2022-10-15T10:50:44.628Z,64.32
2022-10-15T10:52:46.175Z,63.96
2022-10-15T10:54:53.148Z,63.75
2022-10-15T10:56:56.511Z,63.49
2022-10-15T10:59:20.719Z,63.27
2022-10-15T11:01:24.163Z,63.02
2022-10-15T11:03:38.624Z,62.75
2022-10-15T11:05:40.662Z,62.57
2022-10-15T11:08:10.300Z,62.19
2022-10-15T11:10:21.332Z,61.95
2022-10-15T11:12:34.015Z,61.81
2022-10-15T11:15:03.788Z,61.62
2022-10-15T11:17:08.503Z,61.42
2022-10-15T11:19:19.950Z,61.47
2022-10-15T11:22:14.332Z,61.55
2022-10-15T11:24:21.398Z,61.27
2022-10-15T11:27:10.905Z,61.10
2022-10-15T11:29:18.804Z,61.18
2022-10-15T11:31:49.077Z,61.31
2022-10-15T11:34:31.823Z,61.30
2022-10-15T11:36:43.921Z,61.53
2022-10-15T11:39:14.701Z,61.32
2022-10-15T11:41:32.402Z,61.31
2022-10-15T11:43:45.957Z,61.37
2022-10-15T11:45:58.975Z,60.98
2022-10-15T11:48:08.345Z,61.04
2022-10-15T11:50:24.916Z,60.58
2022-10-15T11:52:47.246Z,60.18
2022-10-15T11:55:07.821Z,60.29
2022-10-15T11:57:14.611Z,60.17
2022-10-15T11:59:36.102Z,60.19
2022-10-15T12:01:45.513Z,60.53
2022-10-15T12:04:13.086Z,60.79
2022-10-15T12:06:17.576Z,60.75
2022-10-15T12:08:21.370Z,60.83
2022-10-15T12:10:51.978Z,60.80
2022-10-15T12:13:31.238Z,60.45
2022-10-15T12:15:52.299Z,60.49
2022-10-15T12:18:18.262Z,60.31
2022-10-15T12:20:22.404Z,60.15
2022-10-15T12:22:56.831Z,60.24
2022-10-15T12:24:58.534Z,60.40
2022-10-15T12:27:19.285Z,60.37
2022-10-15T12:29:26.130Z,60.20
2022-10-15T12:31:46.256Z,60.26
2022-10-15T12:33:52.185Z,60.16
2022-10-15T12:35:57.078Z,59.96
2022-10-15T12:38:11.730Z,59.54
2022-10-15T12:40:22.543Z,59.29
2022-10-15T12:42:34.678Z,59.23
2022-10-15T12:44:36.968Z,59.29
2022-10-15T12:46:40.101Z,59.13
2022-10-15T12:48:44.537Z,59.27
2022-10-15T12:50:46.215Z,59.37
2022-10-15T12:52:55.094Z,59.13
2022-10-15T12:55:20.527Z,58.87
2022-10-15T12:57:31.268Z,58.75
2022-10-15T12:59:44.882Z,58.52
2022-10-15T13:01:46.400Z,58.94
2022-10-15T13:03:51.009Z,58.72
2022-10-15T13:05:55.278Z,58.88
2022-10-15T13:08:24.874Z,58.52
2022-10-15T13:10:34.170Z,58.40
2022-10-15T13:12:38.038Z,58.41
2022-10-15T13:14:48.416Z,58.02
2022-10-15T13:16:50.712Z,58.14
2022-10-15T13:18:55.634Z,57.86
2022-10-15T13:20:57.938Z,57.49
2022-10-15T13:23:30.216Z,57.41
2022-10-15T13:25:32.494Z,57.85
2022-10-15T13:27:37.891Z,57.71
2022-10-15T13:29:39.473Z,58.07
2022-10-15T13:31:44.932Z,58.05
2022-10-15T13:33:50.627Z,58.02
2022-10-15T13:35:52.462Z,58.02
2022-10-15T13:37:54.153Z,57.64
2022-10-15T13:39:57.023Z,57.60
2022-10-15T13:42:16.785Z,57.44
2022-10-15T13:44:23.357Z,57.26
2022-10-15T13:46:30.925Z,57.34
2022-10-15T13:48:32.987Z,57.23
2022-10-15T13:50:36.285Z,57.25
2022-10-15T13:52:42.733Z,57.05
2022-10-15T13:54:46.797Z,57.21
2022-10-15T13:56:54.195Z,56.69
2022-10-15T13:58:57.225Z,56.80
2022-10-15T14:01:21.099Z,56.40
2022-10-15T14:03:26.217Z,56.87
2022-10-15T14:05:27.804Z,56.94
2022-10-15T14:07:29.369Z,56.74
2022-10-15T14:09:34.253Z,56.90
2022-10-15T14:11:36.104Z,57.04
2022-10-15T14:13:45.019Z,56.79
2022-10-15T14:15:59.380Z,57.37
2022-10-15T14:18:01.104Z,57.15
2022-10-15T14:20:26.218Z,57.16
2022-10-15T14:22:29.298Z,57.02
2022-10-15T14:24:39.746Z,56.88
2022-10-15T14:26:41.530Z,57.23
2022-10-15T14:28:50.150Z,57.13
2022-10-15T14:30:52.405Z,57.19
2022-10-15T14:32:54.689Z,57.32
2022-10-15T14:34:57.767Z,57.29
2022-10-15T14:37:00.079Z,57.10
2022-10-15T14:39:27.504Z,57.08
2022-10-15T14:41:31.538Z,56.99
2022-10-15T14:43:35.514Z,57.03
2022-10-15T14:45:57.634Z,57.02
2022-10-15T14:48:03.228Z,56.67
2022-10-15T14:50:06.694Z,56.88
2022-10-15T14:52:15.067Z,56.58
2022-10-15T14:54:26.355Z,56.04
2022-10-15T14:56:33.252Z,56.07
2022-10-15T14:58:37.224Z,56.22
2022-10-15T15:00:42.669Z,56.32
2022-10-15T15:02:44.342Z,55.97
2022-10-15T15:05:03.784Z,55.68
2022-10-15T15:07:31.475Z,56.01
2022-10-15T15:09:32.926Z,55.98
2022-10-15T15:11:34.539Z,56.26
2022-10-15T15:13:44.853Z,55.94
2022-10-15T15:15:46.901Z,56.03
2022-10-15T15:17:49.199Z,56.25
2022-10-15T15:19:53.008Z,56.29
2022-10-15T15:21:54.689Z,56.25
2022-10-15T15:23:56.090Z,56.34
2022-10-15T15:25:57.653Z,56.09
2022-10-15T15:28:00.194Z,56.24
2022-10-15T15:30:01.637Z,56.23
2022-10-15T15:32:03.286Z,56.21
2022-10-15T15:34:04.805Z,56.02
2022-10-15T15:36:18.930Z,55.65
2022-10-15T15:38:30.666Z,56.36
2022-10-15T15:40:32.544Z,56.16
2022-10-15T15:42:34.054Z,56.13
2022-10-15T15:44:35.512Z,56.17
2022-10-15T15:46:36.997Z,56.15
2022-10-15T15:48:38.742Z,56.26
2022-10-15T15:50:40.278Z,56.28
2022-10-15T15:52:43.594Z,56.15
2022-10-15T15:54:48.663Z,56.09
2022-10-15T15:56:50.113Z,56.44
2022-10-15T15:58:52.508Z,56.18
2022-10-15T16:00:53.984Z,56.23
2022-10-15T16:02:57.909Z,56.34
2022-10-15T16:05:01.656Z,56.34
2022-10-15T16:07:03.317Z,56.29
2022-10-15T16:09:05.715Z,56.34
2022-10-15T16:11:07.368Z,56.38
2022-10-15T16:13:08.882Z,56.28
2022-10-15T16:15:13.583Z,56.34
2022-10-15T16:17:16.751Z,56.41
2022-10-15T16:19:18.329Z,56.45
2022-10-15T16:21:24.231Z,56.54
2022-10-15T16:23:26.042Z,56.56
2022-10-15T16:25:29.954Z,56.65
2022-10-15T16:27:33.896Z,56.79
2022-10-15T16:29:35.646Z,56.68
2022-10-15T16:31:37.298Z,56.58
2022-10-15T16:33:38.868Z,56.70
2022-10-15T16:35:40.748Z,57.11
2022-10-15T16:37:42.524Z,57.31
2022-10-15T16:39:44.196Z,57.39
2022-10-15T16:41:45.871Z,57.26
2022-10-15T16:43:48.275Z,57.48
2022-10-15T16:45:59.631Z,57.46
2022-10-15T16:48:01.285Z,57.42
2022-10-15T16:50:04.310Z,57.48
2022-10-15T16:52:05.875Z,57.57
2022-10-15T16:54:07.675Z,57.56
2022-10-15T16:56:14.189Z,57.58
2022-10-15T16:58:15.842Z,57.50
2022-10-15T17:00:17.470Z,57.61
2022-10-15T17:02:19.090Z,57.53
2022-10-15T17:04:20.680Z,57.56
2022-10-15T17:06:25.758Z,57.41
2022-10-15T17:08:35.656Z,57.48
2022-10-15T17:10:42.160Z,57.34
2022-10-15T17:12:43.697Z,57.36
2022-10-15T17:14:50.866Z,57.43
2022-10-15T17:16:52.917Z,57.43
2022-10-15T17:18:56.404Z,57.34
2022-10-15T17:20:58.021Z,57.31
2022-10-15T17:22:59.748Z,57.35
2022-10-15T17:25:01.300Z,57.04
2022-10-15T17:27:03.587Z,57.24
2022-10-15T17:29:06.988Z,57.22
2022-10-15T17:31:11.905Z,57.41
2022-10-15T17:33:16.708Z,57.21
2022-10-15T17:35:18.470Z,57.38
2022-10-15T17:37:20.030Z,57.52
2022-10-15T17:39:24.783Z,57.43
2022-10-15T17:41:28.726Z,57.36
2022-10-15T17:43:30.322Z,57.35
2022-10-15T17:45:31.869Z,57.33
2022-10-15T17:47:33.523Z,57.24
2022-10-15T17:49:35.115Z,57.43
2022-10-15T17:51:37.090Z,57.32
2022-10-15T17:53:42.619Z,57.43
2022-10-15T17:55:44.190Z,57.31
2022-10-15T17:57:45.866Z,57.38
2022-10-15T17:59:50.370Z,57.49
2022-10-15T18:01:58.364Z,57.21
2022-10-15T18:04:00.698Z,57.60
2022-10-15T18:06:15.126Z,57.41
2022-10-15T18:08:18.093Z,57.49
2022-10-15T18:10:19.655Z,57.60
2022-10-15T18:12:21.192Z,57.27
2022-10-15T18:14:22.996Z,57.65
2022-10-15T18:16:24.644Z,57.34
2022-10-15T18:18:26.957Z,57.35
2022-10-15T18:20:28.628Z,57.57
2022-10-15T18:22:30.352Z,57.67
2022-10-15T18:24:33.092Z,57.45
2022-10-15T18:26:39.231Z,57.58
2022-10-15T18:28:45.338Z,57.42
2022-10-15T18:30:46.930Z,57.58
2022-10-15T18:32:52.218Z,57.60
2022-10-15T18:34:56.067Z,57.73
2022-10-15T18:36:59.831Z,57.62
2022-10-15T18:39:01.308Z,57.64
2022-10-15T18:41:03.314Z,57.45
2022-10-15T18:43:05.480Z,57.32
2022-10-15T18:45:07.495Z,57.54
2022-10-15T18:47:09.076Z,57.68
2022-10-15T18:49:19.142Z,57.61
2022-10-15T18:51:21.059Z,57.71
2022-10-15T18:53:23.672Z,57.73
2022-10-15T18:55:25.471Z,57.56
2022-10-15T18:57:27.035Z,57.66
2022-10-15T18:59:28.788Z,57.48
2022-10-15T19:01:41.963Z,58.01
2022-10-15T19:03:45.121Z,57.72
2022-10-15T19:05:48.404Z,57.89
2022-10-15T19:07:55.361Z,57.76
2022-10-15T19:09:57.004Z,57.73
2022-10-15T19:12:01.309Z,57.57
2022-10-15T19:14:03.982Z,57.76
2022-10-15T19:16:06.148Z,57.94
2022-10-15T19:18:11.130Z,58.10
2022-10-15T19:20:12.990Z,57.62
2022-10-15T19:22:14.739Z,57.77
2022-10-15T19:24:17.890Z,57.80
2022-10-15T19:26:19.637Z,57.93
2022-10-15T19:28:21.317Z,57.88
2022-10-15T19:30:23.545Z,58.09
2022-10-15T19:32:25.112Z,58.02
2022-10-15T19:34:27.385Z,58.02
2022-10-15T19:36:32.155Z,57.85
2022-10-15T19:38:33.786Z,57.67
2022-10-15T19:40:39.249Z,57.86
2022-10-15T19:42:40.929Z,58.04
2022-10-15T19:44:42.790Z,58.16
2022-10-15T19:46:46.569Z,58.03
2022-10-15T19:48:48.560Z,58.13
2022-10-15T19:50:50.169Z,58.03
2022-10-15T19:52:52.003Z,58.04
2022-10-15T19:54:53.705Z,58.04
2022-10-15T19:56:55.357Z,58.09
2022-10-15T19:58:59.304Z,57.83
2022-10-15T20:01:01.024Z,57.94
2022-10-15T20:03:02.686Z,58.12
2022-10-15T20:05:04.744Z,58.14
2022-10-15T20:07:06.242Z,58.11
2022-10-15T20:09:08.751Z,57.92
2022-10-15T20:11:10.969Z,58.07
2022-10-15T20:13:14.919Z,57.84
2022-10-15T20:15:16.475Z,57.99
2022-10-15T20:17:18.061Z,58.01
2022-10-15T20:19:21.588Z,58.01
2022-10-15T20:21:23.285Z,58.17
2022-10-15T20:23:28.596Z,58.13
2022-10-15T20:25:30.354Z,58.30
2022-10-15T20:27:32.262Z,58.20
2022-10-15T20:29:34.066Z,58.39
2022-10-15T20:31:36.004Z,58.18
2022-10-15T20:33:38.521Z,57.90
2022-10-15T20:35:41.429Z,58.02
2022-10-15T20:37:43.074Z,58.17
2022-10-15T20:39:45.022Z,58.17
2022-10-15T20:41:46.927Z,58.13
2022-10-15T20:44:00.650Z,58.16
2022-10-15T20:46:02.846Z,58.26
2022-10-15T20:48:07.235Z,57.93
2022-10-15T20:50:16.163Z,58.16
2022-10-15T20:52:17.904Z,58.15
2022-10-15T20:54:20.336Z,58.40
2022-10-15T20:56:23.491Z,58.39
2022-10-15T20:58:25.968Z,58.10
2022-10-15T21:00:27.869Z,58.29
2022-10-15T21:02:31.482Z,58.32
2022-10-15T21:04:33.519Z,58.17
2022-10-15T21:06:39.029Z,58.16
2022-10-15T21:08:40.625Z,58.46
2022-10-15T21:10:42.204Z,58.41
2022-10-15T21:12:43.917Z,58.50
2022-10-15T21:14:48.687Z,58.24
2022-10-15T21:16:50.338Z,58.61
2022-10-15T21:18:51.875Z,58.11
2022-10-15T21:21:06.389Z,58.19
2022-10-15T21:23:08.103Z,58.57
2022-10-15T21:25:09.974Z,58.56
2022-10-15T21:27:11.781Z,58.37
2022-10-15T21:29:19.457Z,58.47
2022-10-15T21:31:21.263Z,58.24
2022-10-15T21:33:23.269Z,58.58
2022-10-15T21:35:25.075Z,58.28
2022-10-15T21:37:27.057Z,58.34
2022-10-15T21:39:29.234Z,58.31
2022-10-15T21:41:35.277Z,58.18
2022-10-15T21:43:37.232Z,58.15
2022-10-15T21:45:39.024Z,58.53
2022-10-15T21:47:41.037Z,58.22
2022-10-15T21:49:42.754Z,58.13
2022-10-15T21:51:44.383Z,58.35
2022-10-15T21:53:51.205Z,58.28
2022-10-15T21:55:54.309Z,58.34
2022-10-15T21:57:55.952Z,58.54
2022-10-15T22:00:00.506Z,58.76
2022-10-15T22:02:05.174Z,58.46
2022-10-15T22:04:08.593Z,58.33
2022-10-15T22:06:11.427Z,58.60
2022-10-15T22:08:13.117Z,58.59
2022-10-15T22:10:14.862Z,58.59
2022-10-15T22:12:18.979Z,58.64
2022-10-15T22:14:22.690Z,58.40
2022-10-15T22:16:26.204Z,58.26
2022-10-15T22:18:30.769Z,58.49
2022-10-15T22:20:32.358Z,58.53
2022-10-15T22:22:33.968Z,58.81
2022-10-15T22:24:35.580Z,58.47
2022-10-15T22:26:40.587Z,58.51
2022-10-15T22:28:43.220Z,58.66
2022-10-15T22:30:45.006Z,58.88
2022-10-15T22:32:46.769Z,58.98
2022-10-15T22:34:48.369Z,58.86
2022-10-15T22:36:50.411Z,58.65
2022-10-15T22:38:57.891Z,58.53
2022-10-15T22:40:59.651Z,58.82
2022-10-15T22:43:02.892Z,58.90
2022-10-15T22:45:04.999Z,58.86
2022-10-15T22:47:06.707Z,58.96
2022-10-15T22:49:09.825Z,58.95
2022-10-15T22:51:13.278Z,58.88
2022-10-15T22:53:14.799Z,58.79
2022-10-15T22:55:16.475Z,58.92
2022-10-15T22:57:18.066Z,58.93
2022-10-15T22:59:20.120Z,58.86
2022-10-15T23:01:24.886Z,58.98
2022-10-15T23:03:26.558Z,58.92
2022-10-15T23:05:28.386Z,59.01
2022-10-15T23:07:30.024Z,59.19
2022-10-15T23:09:31.639Z,58.89
2022-10-15T23:11:35.719Z,59.22
2022-10-15T23:13:39.203Z,58.81
2022-10-15T23:15:41.369Z,59.32
2022-10-15T23:17:43.201Z,59.23
2022-10-15T23:19:44.605Z,59.19
2022-10-15T23:21:50.719Z,58.73
2022-10-15T23:23:52.450Z,59.31
2022-10-15T23:25:54.042Z,59.18
2022-10-15T23:27:55.799Z,59.00
2022-10-15T23:30:07.638Z,59.42
2022-10-15T23:34:39.035Z,59.21
2022-10-15T23:36:41.570Z,59.13
2022-10-15T23:38:46.897Z,59.36
2022-10-15T23:40:49.449Z,58.92
2022-10-15T23:42:51.261Z,59.18
2022-10-15T23:44:53.063Z,59.03
2022-10-15T23:46:54.969Z,59.08
2022-10-15T23:48:56.569Z,58.94
2022-10-15T23:51:02.423Z,59.06
2022-10-15T23:53:05.544Z,59.15
2022-10-15T23:55:07.513Z,59.19
2022-10-15T23:57:09.467Z,59.28
2022-10-15T23:59:11.109Z,59.39
